createdAt,value
2018-11-04T00:01:36.791Z,3.33
2018-11-04T00:04:06.131Z,2.70
2018-11-04T00:06:35.469Z,2.40
2018-11-04T00:09:07.018Z,2.70
2018-11-04T00:11:36.313Z,3.90
2018-11-04T00:14:05.706Z,3.50
2018-11-04T00:16:35.312Z,3.00
2018-11-04T00:19:04.753Z,3.20
2018-11-04T00:21:34.068Z,3.07
2018-11-04T00:24:03.424Z,2.70
2018-11-04T00:26:32.730Z,3.33
2018-11-04T00:29:02.074Z,9.37
2018-11-04T00:31:31.372Z,6.00
2018-11-04T00:34:00.639Z,6.30
2018-11-04T00:36:29.888Z,5.53
2018-11-04T00:38:59.178Z,3.67
2018-11-04T00:41:28.419Z,4.13
2018-11-04T00:43:57.611Z,3.33
2018-11-04T00:46:26.860Z,3.40
2018-11-04T00:48:56.124Z,3.27
2018-11-04T00:51:25.375Z,3.90
2018-11-04T00:53:54.708Z,3.10
2018-11-04T00:56:23.977Z,3.40
2018-11-04T00:58:53.248Z,3.10
2018-11-04T01:01:22.612Z,2.97
2018-11-04T01:03:51.888Z,3.20
2018-11-04T01:06:21.134Z,3.00
2018-11-04T01:08:50.413Z,3.00
2018-11-04T01:11:19.644Z,3.27
2018-11-04T01:13:48.992Z,3.50
2018-11-04T01:16:18.233Z,2.93
2018-11-04T01:18:47.442Z,2.73
2018-11-04T01:21:16.743Z,2.50
2018-11-04T01:23:46.064Z,2.87
2018-11-04T01:26:15.341Z,2.90
2018-11-04T01:28:44.631Z,2.80
2018-11-04T01:31:13.966Z,3.07
2018-11-04T01:33:43.227Z,2.90
2018-11-04T01:36:12.438Z,2.43
2018-11-04T01:38:41.749Z,2.87
2018-11-04T01:41:11.033Z,3.63
2018-11-04T01:43:40.273Z,2.93
2018-11-04T01:46:09.589Z,3.63
2018-11-04T01:48:38.816Z,2.80
2018-11-04T01:51:08.090Z,3.03
2018-11-04T01:53:37.408Z,2.70
2018-11-04T01:56:06.697Z,3.17
2018-11-04T01:58:35.964Z,2.57
2018-11-04T02:01:05.337Z,2.63
2018-11-04T02:03:34.604Z,3.00
2018-11-04T02:06:03.880Z,3.27
2018-11-04T02:08:33.130Z,3.70
2018-11-04T02:11:02.396Z,3.40
2018-11-04T02:13:31.693Z,4.23
2018-11-04T02:16:00.993Z,3.60
2018-11-04T02:18:30.272Z,3.50
2018-11-04T02:20:59.567Z,3.00
2018-11-04T02:23:28.902Z,4.47
2018-11-04T02:25:58.282Z,3.43
2018-11-04T02:28:28.096Z,4.27
2018-11-04T02:30:57.442Z,3.90
2018-11-04T02:33:26.796Z,3.80
2018-11-04T02:35:56.166Z,4.73
2018-11-04T02:38:25.472Z,4.30
2018-11-04T02:40:54.757Z,4.00
2018-11-04T02:43:24.062Z,3.73
2018-11-04T02:45:53.396Z,3.70
2018-11-04T02:48:22.714Z,3.27
2018-11-04T02:50:52.091Z,2.90
2018-11-04T02:53:21.406Z,3.50
2018-11-04T02:55:50.756Z,2.97
2018-11-04T02:58:20.067Z,3.57
2018-11-04T03:00:49.391Z,3.73
2018-11-04T03:03:18.703Z,4.07
2018-11-04T03:05:48.006Z,3.83
2018-11-04T03:08:17.268Z,3.80
2018-11-04T03:10:46.568Z,3.60
2018-11-04T03:13:15.904Z,3.67
2018-11-04T03:15:45.172Z,3.90
2018-11-04T03:18:14.424Z,4.27
2018-11-04T03:20:43.712Z,3.77
2018-11-04T03:23:13.000Z,3.47
2018-11-04T03:25:42.465Z,3.53
2018-11-04T03:28:11.736Z,4.00
2018-11-04T03:30:41.063Z,3.90
2018-11-04T03:33:10.533Z,4.07
2018-11-04T03:35:39.813Z,3.90
2018-11-04T03:38:09.449Z,4.37
2018-11-04T03:40:38.753Z,3.97
2018-11-04T03:43:08.029Z,3.60
2018-11-04T03:45:37.348Z,4.70
2018-11-04T03:48:06.839Z,4.50
2018-11-04T03:50:36.125Z,4.07
2018-11-04T03:53:06.069Z,4.30
2018-11-04T03:55:36.456Z,3.93
2018-11-04T03:58:05.922Z,3.63
2018-11-04T04:00:35.193Z,3.97
2018-11-04T04:03:04.476Z,3.53
2018-11-04T04:05:33.829Z,4.10
2018-11-04T04:08:03.153Z,4.40
2018-11-04T04:10:32.415Z,4.07
2018-11-04T04:13:01.787Z,3.70
2018-11-04T04:15:31.092Z,4.17
2018-11-04T04:18:00.478Z,4.10
2018-11-04T04:20:29.692Z,3.87
2018-11-04T04:22:58.961Z,4.60
2018-11-04T04:25:28.197Z,3.80
2018-11-04T04:27:57.478Z,4.20
2018-11-04T04:30:26.689Z,4.63
2018-11-04T04:32:55.940Z,3.37
2018-11-04T04:35:25.240Z,4.17
2018-11-04T04:37:54.523Z,3.70
2018-11-04T04:40:23.789Z,3.40
2018-11-04T04:42:53.100Z,3.60
2018-11-04T04:45:22.334Z,3.40
2018-11-04T04:47:51.545Z,3.50
2018-11-04T04:50:20.852Z,3.00
2018-11-04T04:52:50.089Z,3.80
2018-11-04T04:55:19.332Z,3.10
2018-11-04T04:57:48.585Z,3.70
2018-11-04T05:00:17.894Z,2.70
2018-11-04T05:02:47.167Z,2.87
2018-11-04T05:05:16.474Z,2.80
2018-11-04T05:07:45.818Z,3.07
2018-11-04T05:10:15.081Z,3.03
2018-11-04T05:12:44.436Z,2.80
2018-11-04T05:15:13.767Z,3.40
2018-11-04T05:17:43.029Z,3.17
2018-11-04T05:20:12.337Z,2.50
2018-11-04T05:22:41.617Z,3.10
2018-11-04T05:25:10.889Z,2.77
2018-11-04T05:27:40.164Z,2.67
2018-11-04T05:30:11.165Z,3.03
2018-11-04T05:32:40.536Z,3.03
2018-11-04T05:35:09.789Z,3.13
2018-11-04T05:37:39.044Z,3.10
2018-11-04T05:40:08.704Z,3.70
2018-11-04T05:42:38.024Z,3.03
2018-11-04T05:45:08.330Z,2.90
2018-11-04T05:47:37.692Z,3.20
2018-11-04T05:50:07.131Z,3.20
2018-11-04T05:52:36.826Z,2.83
2018-11-04T05:55:07.265Z,3.40
2018-11-04T05:57:36.558Z,2.97
2018-11-04T06:00:06.861Z,3.40
2018-11-04T06:02:36.152Z,3.40
2018-11-04T06:05:06.028Z,3.50
2018-11-04T06:07:35.347Z,3.30
2018-11-04T06:10:04.713Z,3.47
2018-11-04T06:12:33.965Z,3.83
2018-11-04T06:15:03.325Z,3.50
2018-11-04T06:17:32.587Z,3.90
2018-11-04T06:20:01.810Z,3.63
2018-11-04T06:22:31.085Z,4.70
2018-11-04T06:25:00.344Z,4.17
2018-11-04T06:27:29.624Z,4.47
2018-11-04T06:29:58.943Z,4.20
2018-11-04T06:32:28.188Z,4.13
2018-11-04T06:34:57.495Z,3.47
2018-11-04T06:37:26.814Z,3.93
2018-11-04T06:39:56.395Z,4.00
2018-11-04T06:42:25.653Z,4.60
2018-11-04T06:44:54.964Z,4.20
2018-11-04T06:47:24.272Z,4.47
2018-11-04T06:49:53.598Z,4.40
2018-11-04T06:52:22.908Z,4.47
2018-11-04T06:54:52.145Z,4.23
2018-11-04T06:57:21.592Z,4.37
2018-11-04T06:59:50.910Z,4.03
2018-11-04T07:02:20.176Z,4.60
2018-11-04T07:04:49.490Z,3.73
2018-11-04T07:07:18.791Z,4.40
2018-11-04T07:09:48.036Z,4.37
2018-11-04T07:12:17.360Z,4.17
2018-11-04T07:14:46.658Z,3.73
2018-11-04T07:17:15.966Z,4.67
2018-11-04T07:19:48.530Z,4.00
2018-11-04T07:22:17.835Z,5.10
2018-11-04T07:24:47.256Z,4.53
2018-11-04T07:27:16.560Z,4.53
2018-11-04T07:29:45.800Z,5.20
2018-11-04T07:32:15.229Z,5.70
2018-11-04T07:34:44.562Z,5.13
2018-11-04T07:37:13.886Z,5.87
2018-11-04T07:39:43.196Z,4.97
2018-11-04T07:42:12.565Z,5.30
2018-11-04T07:44:41.880Z,4.70
2018-11-04T07:47:11.125Z,5.10
2018-11-04T07:49:40.449Z,5.03
2018-11-04T07:52:09.761Z,5.10
2018-11-04T07:54:39.069Z,4.60
2018-11-04T07:57:08.265Z,5.03
2018-11-04T07:59:37.528Z,4.67
2018-11-04T08:02:06.948Z,4.67
2018-11-04T08:04:36.283Z,4.20
2018-11-04T08:07:05.578Z,5.00
2018-11-04T08:09:34.771Z,4.73
2018-11-04T08:12:03.987Z,5.37
2018-11-04T08:14:33.227Z,4.90
2018-11-04T08:17:02.453Z,4.90
2018-11-04T08:19:31.710Z,5.03
2018-11-04T08:22:00.952Z,5.80
2018-11-04T08:24:30.220Z,5.23
2018-11-04T08:26:59.540Z,5.30
2018-11-04T08:29:28.752Z,5.47
2018-11-04T08:31:58.091Z,6.10
2018-11-04T08:34:27.353Z,5.13
2018-11-04T08:36:56.596Z,5.80
2018-11-04T08:39:25.796Z,5.37
2018-11-04T08:41:55.073Z,5.10
2018-11-04T08:44:24.432Z,5.10
2018-11-04T08:46:53.660Z,6.50
2018-11-04T08:49:22.906Z,5.73
2018-11-04T08:51:52.249Z,6.40
2018-11-04T08:54:21.408Z,5.40
2018-11-04T08:56:50.966Z,5.30
2018-11-04T08:59:20.267Z,5.17
2018-11-04T09:01:49.485Z,4.50
2018-11-04T09:04:18.676Z,4.20
2018-11-04T09:06:47.951Z,4.20
2018-11-04T09:09:17.135Z,4.97
2018-11-04T09:11:46.529Z,4.70
2018-11-04T09:14:15.947Z,4.40
2018-11-04T09:16:45.091Z,4.20
2018-11-04T09:19:14.420Z,3.93
2018-11-04T09:21:43.877Z,4.30
2018-11-04T09:24:13.171Z,4.10
2018-11-04T09:26:42.401Z,6.37
2018-11-04T09:29:11.789Z,5.70
2018-11-04T09:31:40.991Z,5.00
2018-11-04T09:34:10.280Z,7.40
2018-11-04T09:36:40.022Z,6.13
2018-11-04T09:39:11.013Z,5.30
2018-11-04T09:41:40.237Z,6.33
2018-11-04T09:44:10.871Z,5.60
2018-11-04T09:46:40.131Z,5.80
2018-11-04T09:49:09.332Z,5.93
2018-11-04T09:51:38.623Z,5.90
2018-11-04T09:54:07.818Z,6.63
2018-11-04T09:56:37.132Z,6.53
2018-11-04T09:59:06.755Z,5.90
2018-11-04T10:01:35.920Z,7.30
2018-11-04T10:04:05.709Z,6.40
2018-11-04T10:06:35.004Z,8.00
2018-11-04T10:09:04.960Z,6.33
2018-11-04T10:11:34.152Z,7.53
2018-11-04T10:14:03.375Z,7.17
2018-11-04T10:16:32.555Z,7.67
2018-11-04T10:19:01.918Z,7.73
2018-11-04T10:21:31.209Z,7.13
2018-11-04T10:24:00.433Z,8.10
2018-11-04T10:26:29.727Z,7.77
2018-11-04T10:28:58.943Z,7.70
2018-11-04T10:31:28.117Z,6.23
2018-11-04T10:33:57.460Z,6.73
2018-11-04T10:36:26.816Z,8.60
2018-11-04T10:38:56.048Z,8.83
2018-11-04T10:41:25.229Z,8.23
2018-11-04T10:43:54.501Z,8.97
2018-11-04T10:46:24.255Z,9.63
2018-11-04T10:48:53.514Z,8.93
2018-11-04T10:51:22.728Z,9.10
2018-11-04T10:53:51.891Z,8.37
2018-11-04T10:56:21.114Z,7.73
2018-11-04T10:58:50.407Z,8.40
2018-11-04T11:01:19.615Z,6.53
2018-11-04T11:03:48.854Z,8.40
2018-11-04T11:06:18.089Z,6.35
2018-11-04T11:08:47.312Z,6.43
2018-11-04T11:11:16.548Z,6.58
2018-11-04T11:13:45.840Z,7.53
2018-11-04T11:16:15.051Z,6.80
2018-11-04T11:18:44.367Z,5.90
2018-11-04T11:21:13.609Z,6.77
2018-11-04T11:23:42.877Z,5.80
2018-11-04T11:26:12.187Z,5.73
2018-11-04T11:28:41.506Z,5.80
2018-11-04T11:31:10.716Z,6.20
2018-11-04T11:33:39.974Z,5.73
2018-11-04T11:36:09.208Z,6.30
2018-11-04T11:38:38.419Z,5.50
2018-11-04T11:41:07.687Z,6.60
2018-11-04T11:43:37.037Z,5.80
2018-11-04T11:46:06.719Z,4.43
2018-11-04T11:48:35.907Z,4.90
2018-11-04T11:51:05.359Z,3.87
2018-11-04T11:53:34.556Z,4.83
2018-11-04T11:56:03.737Z,4.13
2018-11-04T11:58:32.944Z,5.20
2018-11-04T12:01:02.140Z,5.70
2018-11-04T12:03:31.331Z,4.50
2018-11-04T12:06:00.530Z,5.07
2018-11-04T12:08:29.775Z,4.73
2018-11-04T12:10:58.967Z,4.57
2018-11-04T12:13:28.242Z,5.23
2018-11-04T12:15:57.596Z,4.80
2018-11-04T12:18:26.817Z,4.10
2018-11-04T12:20:56.026Z,5.17
2018-11-04T12:23:25.346Z,6.43
2018-11-04T12:25:54.546Z,4.20
2018-11-04T12:28:23.828Z,5.50
2018-11-04T12:30:53.115Z,4.03
2018-11-04T12:33:22.303Z,4.20
2018-11-04T12:35:51.537Z,4.93
2018-11-04T12:38:21.747Z,4.63
2018-11-04T12:40:50.971Z,4.50
2018-11-04T12:43:20.241Z,4.60
2018-11-04T12:45:49.601Z,4.77
2018-11-04T12:48:18.743Z,4.63
2018-11-04T12:50:47.981Z,4.23
2018-11-04T12:53:17.195Z,5.17
2018-11-04T12:55:46.431Z,5.30
2018-11-04T12:58:15.678Z,5.47
2018-11-04T13:00:44.925Z,4.70
2018-11-04T13:03:14.226Z,4.27
2018-11-04T13:05:43.512Z,5.57
2018-11-04T13:08:12.831Z,5.73
2018-11-04T13:10:42.024Z,5.27
2018-11-04T13:13:11.269Z,5.00
2018-11-04T13:15:40.552Z,4.63
2018-11-04T13:18:09.776Z,4.10
2018-11-04T13:20:39.109Z,6.03
2018-11-04T13:23:08.397Z,5.20
2018-11-04T13:25:37.722Z,5.00
2018-11-04T13:28:07.189Z,5.80
2018-11-04T13:30:36.709Z,5.50
2018-11-04T13:33:06.002Z,5.40
2018-11-04T13:35:35.151Z,4.90
2018-11-04T13:38:04.419Z,5.30
2018-11-04T13:40:33.731Z,5.93
2018-11-04T13:43:03.045Z,3.80
2018-11-04T13:45:32.404Z,4.37
2018-11-04T13:48:01.737Z,4.37
2018-11-04T13:50:30.931Z,4.40
2018-11-04T13:53:00.371Z,4.13
2018-11-04T13:55:29.598Z,4.10
2018-11-04T13:57:58.883Z,3.93
2018-11-04T14:00:28.092Z,4.37
2018-11-04T14:02:57.419Z,3.87
2018-11-04T14:05:26.608Z,4.20
2018-11-04T14:07:55.888Z,3.87
2018-11-04T14:10:25.075Z,4.33
2018-11-04T14:12:54.344Z,3.80
2018-11-04T14:15:23.560Z,5.10
2018-11-04T14:17:52.777Z,4.50
2018-11-04T14:20:22.580Z,3.70
2018-11-04T14:22:51.896Z,4.60
2018-11-04T14:25:21.116Z,5.47
2018-11-04T14:27:50.373Z,4.50
2018-11-04T14:30:19.723Z,5.20
2018-11-04T14:32:49.009Z,3.80
2018-11-04T14:35:18.278Z,4.87
2018-11-04T14:37:48.230Z,4.33
2018-11-04T14:40:18.297Z,4.87
2018-11-04T14:42:47.540Z,4.60
2018-11-04T14:45:16.768Z,5.17
2018-11-04T14:47:46.068Z,4.70
2018-11-04T14:50:16.755Z,4.37
2018-11-04T14:52:46.077Z,4.57
2018-11-04T14:55:15.271Z,4.90
2018-11-04T14:57:44.515Z,4.97
2018-11-04T15:00:15.083Z,5.97
2018-11-04T15:02:44.284Z,4.77
2018-11-04T15:05:13.732Z,5.27
2018-11-04T15:07:43.018Z,5.23
2018-11-04T15:10:13.740Z,5.10
2018-11-04T15:12:43.148Z,5.83
2018-11-04T15:15:13.957Z,4.77
2018-11-04T15:17:43.649Z,4.90
2018-11-04T15:20:13.227Z,5.50
2018-11-04T15:22:48.612Z,4.73
2018-11-04T15:25:19.235Z,5.60
2018-11-04T15:27:48.823Z,5.77
2018-11-04T15:30:18.015Z,6.40
2018-11-04T15:32:47.379Z,7.40
2018-11-04T15:35:18.167Z,8.00
2018-11-04T15:37:47.489Z,8.80
2018-11-04T15:40:17.317Z,8.05
2018-11-04T15:42:46.606Z,7.73
2018-11-04T15:45:16.524Z,7.77
2018-11-04T15:47:45.816Z,8.47
2018-11-04T15:50:16.501Z,8.20
2018-11-04T15:52:45.923Z,7.10
2018-11-04T15:55:15.191Z,7.97
2018-11-04T15:57:44.555Z,7.53
2018-11-04T16:00:15.093Z,7.37
2018-11-04T16:02:44.548Z,6.70
2018-11-04T16:05:13.969Z,7.83
2018-11-04T16:07:43.311Z,5.90
2018-11-04T16:10:12.987Z,5.23
2018-11-04T16:12:42.234Z,5.60
2018-11-04T16:15:13.582Z,5.57
2018-11-04T16:17:43.360Z,4.70
2018-11-04T16:20:14.912Z,5.97
2018-11-04T16:22:44.819Z,6.13
2018-11-04T16:25:15.254Z,5.60
2018-11-04T16:27:44.584Z,5.80
2018-11-04T16:30:14.964Z,6.30
2018-11-04T16:32:44.351Z,6.57
2018-11-04T16:35:14.516Z,6.67
2018-11-04T16:37:44.790Z,7.50
2018-11-04T16:40:14.120Z,7.30
2018-11-04T16:42:43.440Z,7.77
2018-11-04T16:45:14.922Z,7.00
2018-11-04T16:47:44.322Z,8.00
2018-11-04T16:50:14.590Z,7.70
2018-11-04T16:52:45.599Z,7.93
2018-11-04T16:55:15.225Z,7.10
2018-11-04T16:57:44.767Z,7.60
2018-11-04T17:00:14.126Z,7.27
2018-11-04T17:02:44.501Z,8.50
2018-11-04T17:05:14.620Z,8.33
2018-11-04T17:07:44.148Z,9.60
2018-11-04T17:10:13.453Z,8.30
2018-11-04T17:12:42.803Z,9.10
2018-11-04T17:15:14.794Z,9.43
2018-11-04T17:17:45.268Z,11.03
2018-11-04T17:20:16.509Z,10.17
2018-11-04T17:22:46.235Z,9.33
2018-11-04T17:25:15.589Z,10.83
2018-11-04T17:27:45.763Z,11.10
2018-11-04T17:30:18.527Z,12.33
2018-11-04T17:32:48.286Z,13.47
2018-11-04T17:35:18.384Z,13.40
2018-11-04T17:37:48.107Z,13.70
2018-11-04T17:40:18.016Z,14.33
2018-11-04T17:42:47.305Z,14.83
2018-11-04T17:45:17.436Z,15.77
2018-11-04T17:47:47.486Z,14.20
2018-11-04T17:50:18.135Z,15.47
2018-11-04T17:52:47.458Z,14.33
2018-11-04T17:55:17.060Z,14.33
2018-11-04T17:57:46.518Z,16.13
2018-11-04T18:00:17.646Z,18.60
2018-11-04T18:02:47.079Z,18.00
2018-11-04T18:05:16.356Z,18.63
2018-11-04T18:07:45.813Z,16.07
2018-11-04T18:10:16.121Z,16.40
2018-11-04T18:12:45.496Z,17.33
2018-11-04T18:15:15.299Z,18.13
2018-11-04T18:17:44.600Z,19.00
2018-11-04T18:20:14.282Z,17.60
2018-11-04T18:22:43.569Z,16.60
2018-11-04T18:25:13.528Z,15.97
2018-11-04T18:27:43.708Z,16.73
2018-11-04T18:30:14.780Z,16.07
2018-11-04T18:32:44.723Z,16.47
2018-11-04T18:35:14.016Z,17.53
2018-11-04T18:37:43.528Z,20.07
2018-11-04T18:40:15.262Z,18.20
2018-11-04T18:42:45.127Z,19.47
2018-11-04T18:45:15.513Z,18.47
2018-11-04T18:47:45.177Z,18.27
2018-11-04T18:50:15.295Z,17.80
2018-11-04T18:52:44.846Z,17.30
2018-11-04T18:55:14.302Z,18.50
2018-11-04T18:57:44.897Z,19.23
2018-11-04T19:00:16.041Z,19.53
2018-11-04T19:02:46.279Z,20.40
2018-11-04T19:05:15.725Z,21.17
2018-11-04T19:07:46.149Z,20.87
2018-11-04T19:10:17.347Z,22.90
2018-11-04T19:12:46.861Z,21.07
2018-11-04T19:15:17.391Z,18.23
2018-11-04T19:17:48.067Z,18.17
2018-11-04T19:20:17.483Z,18.03
2018-11-04T19:22:46.945Z,17.70
2018-11-04T19:25:17.002Z,17.80
2018-11-04T19:27:46.542Z,17.50
2018-11-04T19:30:17.218Z,18.03
2018-11-04T19:32:50.011Z,16.80
2018-11-04T19:35:22.896Z,16.60
2018-11-04T19:37:53.029Z,18.50
2018-11-04T19:40:22.518Z,18.50
2018-11-04T19:42:51.963Z,18.67
2018-11-04T19:45:21.340Z,18.40
2018-11-04T19:47:50.612Z,19.07
2018-11-04T19:50:19.849Z,19.87
2018-11-04T19:52:49.144Z,17.43
2018-11-04T19:55:18.351Z,15.57
2018-11-04T19:57:47.826Z,16.53
2018-11-04T20:00:18.084Z,15.70
2018-11-04T20:02:51.796Z,15.87
2018-11-04T20:05:23.244Z,14.10
2018-11-04T20:07:52.603Z,15.80
2018-11-04T20:10:21.948Z,15.90
2018-11-04T20:12:56.410Z,17.10
2018-11-04T20:15:25.760Z,16.50
2018-11-04T20:17:55.027Z,16.07
2018-11-04T20:20:26.034Z,15.23
2018-11-04T20:22:55.387Z,17.37
2018-11-04T20:25:29.854Z,17.30
2018-11-04T20:27:59.250Z,18.73
2018-11-04T20:30:28.548Z,18.43
2018-11-04T20:33:04.477Z,18.63
2018-11-04T20:35:33.854Z,18.53
2018-11-04T20:38:03.159Z,20.13
2018-11-04T20:40:37.473Z,19.43
2018-11-04T20:43:07.166Z,19.10
2018-11-04T20:45:36.437Z,21.37
2018-11-04T20:48:11.367Z,20.20
2018-11-04T20:50:45.907Z,19.10
2018-11-04T20:53:15.217Z,19.83
2018-11-04T20:55:49.549Z,20.17
2018-11-04T20:58:18.981Z,23.17
2018-11-04T21:00:48.110Z,21.33
2018-11-04T21:03:17.408Z,21.00
2018-11-04T21:05:46.681Z,19.83
2018-11-04T21:08:15.935Z,20.00
2018-11-04T21:10:45.206Z,19.83
2018-11-04T21:13:14.509Z,19.83
2018-11-04T21:15:43.821Z,18.73
2018-11-04T21:18:13.061Z,18.20
2018-11-04T21:20:42.341Z,19.90
2018-11-04T21:23:11.664Z,17.77
2018-11-04T21:25:41.179Z,19.13
2018-11-04T21:28:10.360Z,18.50
2018-11-04T21:30:39.595Z,19.20
2018-11-04T21:33:08.892Z,20.03
2018-11-04T21:35:38.180Z,20.57
2018-11-04T21:38:07.481Z,19.80
2018-11-04T21:40:36.884Z,22.10
2018-11-04T21:43:06.327Z,20.70
2018-11-04T21:45:35.537Z,21.07
2018-11-04T21:48:04.889Z,19.03
2018-11-04T21:50:34.204Z,30.47
2018-11-04T21:53:03.728Z,30.33
2018-11-04T21:55:33.208Z,19.30
2018-11-04T21:58:02.380Z,18.90
2018-11-04T22:00:31.714Z,20.07
2018-11-04T22:03:01.012Z,20.37
2018-11-04T22:05:30.474Z,21.43
2018-11-04T22:07:59.836Z,21.27
2018-11-04T22:10:29.163Z,19.33
2018-11-04T22:12:58.465Z,19.43
2018-11-04T22:15:27.842Z,19.10
2018-11-04T22:17:57.101Z,20.10
2018-11-04T22:20:26.453Z,18.90
2018-11-04T22:22:55.795Z,18.80
2018-11-04T22:25:25.076Z,19.37
2018-11-04T22:27:54.341Z,19.80
2018-11-04T22:30:23.729Z,19.13
2018-11-04T22:32:52.994Z,18.70
2018-11-04T22:35:22.247Z,17.83
2018-11-04T22:37:51.548Z,20.60
2018-11-04T22:40:20.778Z,19.40
2018-11-04T22:42:50.043Z,20.37
2018-11-04T22:45:19.327Z,20.30
2018-11-04T22:47:48.590Z,20.57
2018-11-04T22:50:17.831Z,19.47
2018-11-04T22:52:47.066Z,19.07
2018-11-04T22:55:16.343Z,20.73
2018-11-04T22:57:45.850Z,19.20
2018-11-04T23:00:20.298Z,19.30
2018-11-04T23:02:50.477Z,19.93
2018-11-04T23:05:24.849Z,20.43
2018-11-04T23:07:54.151Z,23.17
2018-11-04T23:10:23.460Z,20.77
2018-11-04T23:12:52.744Z,23.40
2018-11-04T23:15:22.016Z,22.37
2018-11-04T23:17:51.326Z,22.23
2018-11-04T23:20:20.649Z,24.73
2018-11-04T23:22:50.021Z,22.57
2018-11-04T23:25:19.344Z,23.60
2018-11-04T23:27:48.581Z,24.20
2018-11-04T23:30:19.014Z,23.93
2018-11-04T23:32:48.606Z,24.00
2018-11-04T23:35:17.882Z,23.03
2018-11-04T23:37:47.175Z,23.87
2018-11-04T23:40:16.416Z,23.37
2018-11-04T23:42:45.712Z,24.00
2018-11-04T23:45:15.547Z,23.73
2018-11-04T23:47:44.994Z,22.10
2018-11-04T23:50:15.477Z,24.20
2018-11-04T23:52:45.212Z,23.97
2018-11-04T23:55:15.239Z,23.03
2018-11-04T23:57:44.517Z,21.87
